Time;durP1;ratioP1;P1;durP2;ratioP2;P2;SDS_P1;SDS_P2;PMS_P1;PMS_P2;Temp;Humidity;BMP_temperature;BMP_pressure;BME280_temperature;BME280_humidity;BME280_pressure;Samples;Min_cycle;Max_cycle;Signal;HPM_P1;HPM_P2
2020/12/03 00:01:15;;;;;;;67.47;34.17;;;6.40;99.90;;;;;;5115107;28;20027;-89
2020/12/03 00:03:55;;;;;;;66.80;34.53;;;6.40;99.90;;;;;;5114971;28;20039;-90
2020/12/03 00:06:35;;;;;;;64.63;31.00;;;6.40;99.90;;;;;;5114756;28;20028;-90
2020/12/03 00:09:10;;;;;;;64.82;32.05;;;6.40;99.90;;;;;;5115026;28;20243;-90
2020/12/03 00:11:40;;;;;;;58.70;30.35;;;6.40;99.90;;;;;;5115009;28;20117;-90
2020/12/03 00:14:07;;;;;;;61.10;31.13;;;6.40;99.90;;;;;;5097669;28;20032;-90
2020/12/03 00:16:36;;;;;;;69.60;34.80;;;6.40;99.90;;;;;;5114729;28;20115;-89
2020/12/03 00:19:06;;;;;;;71.88;35.00;;;6.40;99.90;;;;;;5115746;28;20467;-89
2020/12/03 00:21:35;;;;;;;74.40;36.78;;;6.40;99.90;;;;;;5114482;28;20367;-90
2020/12/03 00:24:02;;;;;;;72.70;36.80;;;6.40;99.90;;;;;;5114661;28;20475;-90
2020/12/03 00:26:29;;;;;;;82.53;40.63;;;6.40;99.90;;;;;;5115809;28;20034;-90
2020/12/03 00:28:58;;;;;;;76.97;37.38;;;6.40;99.90;;;;;;5114277;28;20042;-90
2020/12/03 00:31:27;;;;;;;67.75;34.40;;;6.40;99.90;;;;;;5114384;28;20024;-89
2020/12/03 00:33:54;;;;;;;77.32;37.95;;;6.40;99.90;;;;;;5115808;28;20516;-90
2020/12/03 00:36:20;;;;;;;86.93;43.97;;;6.40;99.90;;;;;;5115332;28;20047;-90
2020/12/03 00:38:47;;;;;;;77.97;39.47;;;6.40;99.90;;;;;;5114037;28;20033;-90
2020/12/03 00:41:18;;;;;;;82.88;41.33;;;6.40;99.90;;;;;;5121159;27;20070;-90
2020/12/03 00:43:45;;;;;;;84.68;42.55;;;6.40;99.90;;;;;;5135424;27;20047;-90
2020/12/03 00:46:10;;;;;;;85.22;43.40;;;6.30;99.90;;;;;;5133864;27;20031;-90
2020/12/03 00:48:37;;;;;;;80.25;40.45;;;6.40;99.90;;;;;;5135847;27;20098;-91
2020/12/03 00:51:03;;;;;;;81.82;40.28;;;6.30;99.90;;;;;;5134772;27;20160;-91
2020/12/03 00:53:29;;;;;;;84.57;41.75;;;6.40;99.90;;;;;;5117918;27;20028;-90
2020/12/03 00:55:55;;;;;;;86.32;43.03;;;6.40;99.90;;;;;;5115172;28;20047;-90
2020/12/03 00:58:21;;;;;;;88.20;42.95;;;6.40;99.90;;;;;;5113842;28;20027;-91
2020/12/03 01:00:46;;;;;;;82.75;42.30;;;6.30;99.90;;;;;;5117825;28;20027;-89
2020/12/03 01:03:12;;;;;;;77.10;39.80;;;6.40;99.90;;;;;;5134508;27;20031;-89
2020/12/03 01:05:38;;;;;;;80.22;40.85;;;6.40;99.90;;;;;;5135883;27;20047;-89
2020/12/03 01:08:04;;;;;;;85.07;42.97;;;6.40;99.90;;;;;;5133965;27;20065;-89
2020/12/03 01:10:32;;;;;;;79.15;40.10;;;6.40;99.90;;;;;;5135434;27;20109;-89
2020/12/03 01:12:59;;;;;;;79.50;40.78;;;6.40;99.90;;;;;;5135486;27;20024;-89
2020/12/03 01:15:25;;;;;;;89.93;43.78;;;6.40;99.90;;;;;;5134505;28;20378;-89
2020/12/03 01:17:53;;;;;;;93.20;46.55;;;6.40;99.90;;;;;;5135343;28;20031;-89
2020/12/03 01:20:22;;;;;;;81.28;42.95;;;6.30;99.90;;;;;;5116644;28;20033;-90
2020/12/03 01:22:49;;;;;;;84.60;41.75;;;6.30;99.90;;;;;;5123013;28;20026;-90
2020/12/03 01:25:19;;;;;;;90.22;44.17;;;6.30;99.90;;;;;;5124938;28;20121;-88
2020/12/03 01:27:45;;;;;;;90.25;42.90;;;6.30;99.90;;;;;;5131217;28;20435;-89
2020/12/03 01:30:11;;;;;;;85.18;43.05;;;6.30;99.90;;;;;;5135162;27;20162;-89
2020/12/03 01:32:37;;;;;;;79.30;42.13;;;6.30;99.90;;;;;;5134503;28;20068;-89
2020/12/03 01:35:05;;;;;;;75.57;40.13;;;6.30;99.90;;;;;;5134644;28;20024;-89
2020/12/03 01:37:34;;;;;;;83.07;40.58;;;6.30;99.90;;;;;;5134332;28;20354;-89
2020/12/03 01:40:00;;;;;;;83.55;42.28;;;6.30;99.90;;;;;;5134142;28;20062;-91
2020/12/03 01:42:25;;;;;;;79.10;40.22;;;6.30;99.90;;;;;;5132105;28;20429;-92
2020/12/03 01:44:53;;;;;;;77.00;39.80;;;6.30;99.90;;;;;;5120813;28;20084;-91
2020/12/03 01:47:25;;;;;;;67.55;35.83;;;6.30;99.90;;;;;;5117588;28;20049;-90
2020/12/03 01:49:52;;;;;;;73.35;39.20;;;6.30;99.90;;;;;;5133833;27;20072;-90
2020/12/03 01:52:18;;;;;;;75.57;39.00;;;6.30;99.90;;;;;;5132942;27;20057;-90
2020/12/03 01:54:45;;;;;;;70.90;35.55;;;6.30;99.90;;;;;;5134286;27;20019;-91
2020/12/03 01:57:29;;;;;;;79.20;39.50;;;6.20;99.90;;;;;;5123117;27;20583;-91
2020/12/03 02:00:16;;;;;;;74.00;39.08;;;6.20;99.90;;;;;;5131685;27;20088;-91
2020/12/03 02:02:46;;;;;;;73.45;37.33;;;6.20;99.90;;;;;;5133793;27;20144;-91
2020/12/03 02:05:20;;;;;;;67.75;36.78;;;6.20;99.90;;;;;;5133301;27;20126;-90
2020/12/03 02:07:46;;;;;;;67.82;34.17;;;6.20;99.90;;;;;;5138020;27;20477;-90
2020/12/03 02:10:18;;;;;;;63.08;34.55;;;6.20;99.90;;;;;;5123126;27;20517;-89
2020/12/03 02:12:44;;;;;;;63.67;33.63;;;6.20;99.90;;;;;;5130820;27;20019;-89
2020/12/03 02:15:11;;;;;;;67.95;36.00;;;6.10;99.90;;;;;;5126655;27;20028;-90
2020/12/03 02:17:38;;;;;;;64.10;34.88;;;6.20;99.90;;;;;;5116843;28;20024;-89
2020/12/03 02:20:11;;;;;;;67.95;34.22;;;6.10;99.90;;;;;;5117212;28;20027;-89
2020/12/03 02:22:38;;;;;;;63.15;32.45;;;6.10;99.90;;;;;;5117621;27;20044;-89
2020/12/03 02:25:05;;;;;;;58.65;34.00;;;6.10;99.90;;;;;;5117678;28;20051;-89
2020/12/03 02:27:31;;;;;;;62.83;33.65;;;6.10;99.90;;;;;;5116778;28;20030;-89
2020/12/03 02:29:56;;;;;;;61.10;34.50;;;6.10;99.90;;;;;;5116839;28;20028;-90
2020/12/03 02:32:22;;;;;;;62.30;33.30;;;6.10;99.90;;;;;;5116901;28;20046;-90
2020/12/03 02:34:48;;;;;;;59.33;31.77;;;6.10;99.90;;;;;;5118134;28;20455;-90
2020/12/03 02:37:15;;;;;;;57.53;32.72;;;6.10;99.90;;;;;;5116388;28;20405;-90
2020/12/03 02:39:41;;;;;;;55.38;31.70;;;6.10;99.90;;;;;;5116643;28;20054;-89
2020/12/03 02:42:10;;;;;;;58.35;33.08;;;6.10;99.90;;;;;;5116779;28;20037;-89
2020/12/03 02:44:39;;;;;;;65.22;34.03;;;6.10;99.90;;;;;;5116240;28;20554;-90
2020/12/03 02:47:05;;;;;;;64.43;33.40;;;6.10;99.90;;;;;;5116584;27;20019;-90
2020/12/03 02:49:40;;;;;;;61.40;32.47;;;6.10;99.90;;;;;;5116453;28;20507;-90
2020/12/03 02:52:07;;;;;;;61.25;34.70;;;6.10;99.90;;;;;;5116351;28;20069;-90
2020/12/03 02:54:36;;;;;;;58.22;31.67;;;6.10;99.90;;;;;;5116645;28;20069;-90
2020/12/03 02:57:01;;;;;;;56.60;30.83;;;6.10;99.90;;;;;;5117871;28;20061;-89
2020/12/03 02:59:27;;;;;;;53.10;30.05;;;6.10;99.90;;;;;;5116432;28;20028;-90
2020/12/03 03:01:57;;;;;;;55.78;30.27;;;6.10;99.90;;;;;;5117497;28;20031;-90
2020/12/03 03:04:25;;;;;;;54.55;30.00;;;6.10;99.90;;;;;;5117465;28;20039;-90
2020/12/03 03:06:54;;;;;;;53.80;29.23;;;6.00;99.90;;;;;;5116149;28;20023;-90
2020/12/03 03:09:21;;;;;;;53.03;29.48;;;6.00;99.90;;;;;;5114818;28;20075;-89
2020/12/03 03:11:47;;;;;;;49.45;28.52;;;6.00;99.90;;;;;;5117245;28;20363;-90
2020/12/03 03:14:15;;;;;;;54.80;28.35;;;6.00;99.90;;;;;;5116367;28;20045;-90
2020/12/03 03:16:43;;;;;;;48.45;25.60;;;6.00;99.90;;;;;;5116173;28;20074;-90
2020/12/03 03:19:09;;;;;;;49.65;26.77;;;6.00;99.90;;;;;;5115850;28;20027;-91
2020/12/03 03:21:36;;;;;;;46.30;26.17;;;5.90;99.90;;;;;;5117305;28;20055;-90
2020/12/03 03:24:02;;;;;;;54.25;27.83;;;5.90;99.90;;;;;;5117056;28;20061;-90
2020/12/03 03:26:28;;;;;;;48.88;27.45;;;6.00;99.90;;;;;;5116805;28;20023;-90
2020/12/03 03:28:54;;;;;;;50.53;29.08;;;5.90;99.90;;;;;;5116041;28;20041;-90
2020/12/03 03:31:21;;;;;;;52.13;29.25;;;5.90;99.90;;;;;;5115939;28;20024;-89
2020/12/03 03:33:47;;;;;;;46.88;26.95;;;6.00;99.90;;;;;;5115705;28;20069;-89
2020/12/03 03:36:13;;;;;;;56.63;31.05;;;5.90;99.90;;;;;;5115391;28;20034;-90
2020/12/03 03:38:39;;;;;;;50.03;27.48;;;5.90;99.90;;;;;;5115209;28;20463;-90
2020/12/03 03:41:05;;;;;;;53.70;30.50;;;5.90;99.90;;;;;;5116266;28;20042;-89
2020/12/03 03:43:34;;;;;;;52.97;28.88;;;5.90;99.90;;;;;;5118114;27;20024;-90
2020/12/03 03:46:00;;;;;;;50.33;28.50;;;5.90;99.90;;;;;;5119216;27;20110;-89
2020/12/03 03:48:26;;;;;;;52.45;27.92;;;5.90;99.90;;;;;;5118794;27;20132;-88
2020/12/03 03:50:52;;;;;;;59.78;29.45;;;5.90;99.90;;;;;;5118393;27;20045;-90
2020/12/03 03:53:18;;;;;;;53.47;29.48;;;6.00;99.90;;;;;;5118822;27;20347;-88
2020/12/03 03:55:43;;;;;;;51.60;29.23;;;6.00;99.90;;;;;;5137280;27;20023;-89
2020/12/03 03:58:09;;;;;;;55.47;29.25;;;6.00;99.90;;;;;;5118070;27;20031;-89
2020/12/03 04:00:41;;;;;;;53.17;28.42;;;6.00;99.90;;;;;;5118432;27;20038;-88
2020/12/03 04:03:12;;;;;;;56.85;28.90;;;6.00;99.90;;;;;;5118696;27;20030;-90
2020/12/03 04:05:44;;;;;;;47.60;25.50;;;6.00;99.90;;;;;;5136778;27;20477;-90
2020/12/03 04:08:11;;;;;;;50.72;26.38;;;6.00;99.90;;;;;;5118495;27;20261;-90
2020/12/03 04:10:37;;;;;;;46.58;26.88;;;6.00;99.90;;;;;;5118318;27;20128;-91
2020/12/03 04:13:05;;;;;;;47.38;26.25;;;6.10;99.90;;;;;;5135703;27;20550;-89
2020/12/03 04:15:31;;;;;;;50.53;26.05;;;6.10;99.90;;;;;;5136443;27;20058;-89
2020/12/03 04:17:57;;;;;;;48.50;27.27;;;6.10;99.90;;;;;;5118077;27;20024;-89
2020/12/03 04:20:23;;;;;;;45.47;25.38;;;6.10;99.90;;;;;;5135953;27;20039;-90
2020/12/03 04:22:49;;;;;;;50.08;27.55;;;6.10;99.90;;;;;;5117863;27;20023;-89
2020/12/03 04:25:15;;;;;;;49.55;26.25;;;6.10;99.90;;;;;;5118134;27;20519;-89
2020/12/03 04:27:41;;;;;;;46.65;25.98;;;6.10;99.90;;;;;;5117904;27;20075;-90
2020/12/03 04:30:08;;;;;;;49.97;27.08;;;6.10;99.90;;;;;;5118121;27;20473;-90
2020/12/03 04:32:34;;;;;;;50.40;28.38;;;6.10;99.90;;;;;;5117486;27;20038;-91
2020/12/03 04:35:07;;;;;;;51.00;28.95;;;6.20;99.90;;;;;;5118063;27;20019;-90
2020/12/03 04:37:36;;;;;;;48.53;27.25;;;6.20;99.90;;;;;;5135856;27;20031;-90
2020/12/03 04:40:04;;;;;;;53.05;28.20;;;6.20;99.90;;;;;;5100602;27;20408;-86
2020/12/03 04:42:32;;;;;;;61.13;31.50;;;6.20;99.90;;;;;;5117763;27;20060;-89
2020/12/03 04:45:23;;;;;;;53.85;29.23;;;6.20;99.90;;;;;;5117488;27;20047;-89
2020/12/03 04:47:54;;;;;;;53.50;28.17;;;6.20;99.90;;;;;;5106895;27;20035;-89
2020/12/03 04:50:51;;;;;;;50.03;27.75;;;6.20;99.90;;;;;;5117394;27;20043;-89
2020/12/03 04:53:49;;;;;;;61.25;31.50;;;6.20;99.90;;;;;;5117925;27;20030;-88
2020/12/03 04:56:27;;;;;;;50.20;28.02;;;6.20;99.90;;;;;;5117536;27;20019;-89
2020/12/03 04:59:10;;;;;;;48.22;26.98;;;6.20;99.90;;;;;;5117402;27;20057;-89
2020/12/03 05:01:42;;;;;;;50.72;28.17;;;6.20;99.90;;;;;;5117325;27;20024;-89
2020/12/03 05:04:13;;;;;;;53.13;28.35;;;6.20;99.90;;;;;;5117465;28;20038;-89
2020/12/03 05:06:59;;;;;;;54.95;28.90;;;6.20;99.90;;;;;;5117196;27;20038;-90
2020/12/03 05:09:50;;;;;;;55.25;29.30;;;6.20;99.90;;;;;;5135095;27;20482;-89
2020/12/03 05:12:22;;;;;;;54.40;29.70;;;6.20;99.90;;;;;;5116838;28;20079;-88
2020/12/03 05:15:06;;;;;;;44.17;27.33;;;6.20;99.90;;;;;;5117065;28;20038;-89
2020/12/03 05:18:09;;;;;;;50.60;28.33;;;6.20;99.90;;;;;;5117042;28;20073;-89
2020/12/03 05:20:47;;;;;;;48.97;28.25;;;6.20;99.90;;;;;;5116517;28;20047;-88
2020/12/03 05:23:18;;;;;;;54.20;28.80;;;6.20;99.90;;;;;;5117324;28;20027;-89
2020/12/03 05:25:46;;;;;;;46.45;27.40;;;6.20;99.90;;;;;;5116852;28;20084;-88
2020/12/03 05:28:21;;;;;;;46.55;27.67;;;6.20;99.90;;;;;;5116826;28;20027;-88
2020/12/03 05:30:55;;;;;;;50.33;28.65;;;6.20;99.90;;;;;;5134936;28;20023;-89
2020/12/03 05:33:22;;;;;;;46.72;27.15;;;6.20;99.90;;;;;;5119747;27;20020;-89
2020/12/03 05:35:48;;;;;;;48.95;27.20;;;6.20;99.90;;;;;;5121025;27;20059;-89
2020/12/03 05:38:22;;;;;;;47.40;27.38;;;6.20;99.90;;;;;;5139282;27;20035;-88
2020/12/03 05:41:05;;;;;;;52.88;28.60;;;6.20;99.90;;;;;;5121116;27;20032;-89
2020/12/03 05:43:32;;;;;;;52.75;28.08;;;6.20;99.90;;;;;;5120206;27;20415;-88
2020/12/03 05:46:09;;;;;;;46.55;28.17;;;6.20;99.90;;;;;;5121036;27;20447;-91
2020/12/03 05:48:37;;;;;;;54.85;31.02;;;6.20;99.90;;;;;;5138825;27;20040;-89
2020/12/03 05:51:28;;;;;;;52.72;28.85;;;6.20;99.90;;;;;;5120574;27;20085;-89
2020/12/03 05:54:00;;;;;;;49.00;27.60;;;6.10;99.90;;;;;;5120506;27;20027;-89
2020/12/03 05:56:26;;;;;;;44.95;26.10;;;6.10;99.90;;;;;;5138934;27;20049;-91
2020/12/03 05:59:12;;;;;;;44.08;24.65;;;6.10;99.90;;;;;;5120330;27;20046;-89
2020/12/03 06:01:47;;;;;;;46.05;25.27;;;6.10;99.90;;;;;;5120411;27;20119;-89
2020/12/03 06:04:49;;;;;;;48.13;29.20;;;6.20;99.90;;;;;;5103204;27;20115;-89
2020/12/03 06:07:53;;;;;;;47.13;27.60;;;6.20;99.90;;;;;;5110101;27;20043;-88
2020/12/03 06:10:49;;;;;;;44.72;25.50;;;6.20;99.90;;;;;;5105534;27;20395;-90
2020/12/03 06:13:54;;;;;;;42.20;25.10;;;6.10;99.90;;;;;;5137667;27;20080;-89
2020/12/03 06:16:56;;;;;;;36.45;21.33;;;6.10;99.90;;;;;;5119569;27;20031;-90
2020/12/03 06:19:55;;;;;;;37.35;21.88;;;6.00;99.90;;;;;;5110854;27;20095;-89
2020/12/03 06:22:24;;;;;;;36.97;22.20;;;6.00;99.90;;;;;;5119376;27;20023;-89
2020/12/03 06:25:11;;;;;;;38.95;22.33;;;6.00;99.90;;;;;;5137728;27;20038;-90
2020/12/03 06:27:55;;;;;;;37.40;22.42;;;6.00;99.90;;;;;;5119337;27;20466;-90
2020/12/03 06:30:23;;;;;;;35.60;23.10;;;6.00;99.90;;;;;;5118872;27;20118;-90
2020/12/03 06:33:26;;;;;;;37.03;22.55;;;6.00;99.90;;;;;;5118277;27;20143;-89
2020/12/03 06:36:17;;;;;;;35.20;20.92;;;6.00;99.90;;;;;;5119110;27;20027;-91
2020/12/03 06:39:38;;;;;;;38.95;22.33;;;6.00;99.90;;;;;;5118742;27;20047;-89
2020/12/03 06:42:33;;;;;;;36.80;23.40;;;6.00;99.90;;;;;;5105964;27;20406;-91
2020/12/03 06:45:10;;;;;;;43.10;24.75;;;6.00;99.90;;;;;;5116086;28;20094;-91
2020/12/03 06:48:01;;;;;;;47.03;27.38;;;5.90;99.90;;;;;;5116420;27;20239;-91
2020/12/03 06:50:51;;;;;;;48.13;28.00;;;6.00;99.90;;;;;;5118962;27;20038;-91
2020/12/03 06:53:45;;;;;;;43.25;25.55;;;5.90;99.90;;;;;;5136414;27;20133;-92
2020/12/03 06:56:27;;;;;;;37.53;22.83;;;5.90;99.90;;;;;;5136299;27;20088;-92
2020/12/03 06:59:49;;;;;;;41.53;24.60;;;5.90;99.90;;;;;;5136609;27;20031;-92
2020/12/03 07:02:43;;;;;;;37.63;22.90;;;5.90;99.90;;;;;;5076727;28;20273;-92
2020/12/03 07:05:52;;;;;;;35.17;21.33;;;5.90;99.90;;;;;;5135630;27;20145;-91
2020/12/03 07:12:21;;;;;;;;;;;;;;;;;;;;;
2020/12/03 07:15:27;;;;;;;39.70;23.65;;;5.90;99.90;;;;;;5073062;28;20033;-92
2020/12/03 07:22:24;;;;;;;40.30;22.40;;;5.90;99.90;;;;;;5112231;28;20411;-92
2020/12/03 07:25:35;;;;;;;45.97;23.38;;;5.90;99.90;;;;;;5027040;28;20037;-92
2020/12/03 07:28:56;;;;;;;45.90;24.42;;;5.90;99.90;;;;;;5028721;28;20469;-91
2020/12/03 07:32:01;;;;;;;47.92;25.50;;;5.90;99.90;;;;;;5036529;28;20068;-92
2020/12/03 07:34:52;;;;;;;;;;;;;;;;;;;;;
2020/12/03 07:37:52;;;;;;;;;;;;;;;;;;;;;
2020/12/03 07:40:42;;;;;;;55.28;27.90;;;5.90;99.90;;;;;;5094231;28;20032;-90
2020/12/03 07:43:52;;;;;;;56.10;28.85;;;5.90;99.90;;;;;;5074157;28;20459;-89
2020/12/03 07:46:45;;;;;;;;;;;;;;;;;;;;;
2020/12/03 07:49:41;;;;;;;58.37;30.03;;;5.80;99.90;;;;;;5116237;28;20471;-90
2020/12/03 07:52:48;;;;;;;57.95;30.77;;;5.80;99.90;;;;;;5127335;27;20272;-92
2020/12/03 07:55:25;;;;;;;61.55;32.45;;;5.80;99.90;;;;;;5135556;27;20050;-89
2020/12/03 08:01:50;;;;;;;57.08;29.33;;;5.80;99.90;;;;;;5135481;27;20034;-90
2020/12/03 08:04:56;;;;;;;54.53;28.58;;;5.90;99.90;;;;;;5086488;27;20019;-92
2020/12/03 08:07:47;;;;;;;60.97;30.10;;;5.90;99.90;;;;;;5076315;28;20035;-92
2020/12/03 08:10:49;;;;;;;58.17;29.48;;;5.90;99.90;;;;;;5135043;27;20087;-92
2020/12/03 08:13:42;;;;;;;54.72;28.58;;;5.80;99.90;;;;;;5136265;27;20038;-91
2020/12/03 08:17:01;;;;;;;;;;;;;;;;;;;;;
2020/12/03 08:19:33;;;;;;;54.80;27.83;;;5.80;99.90;;;;;;5136873;27;20033;-90
2020/12/03 08:23:02;;;;;;;;;;;;;;;;;;;;;
2020/12/03 08:43:54;;;;;;;54.03;27.00;;;5.80;99.90;;;;;;4974332;28;20039;-91
2020/12/03 08:50:36;;;;;;;46.55;24.90;;;5.80;99.90;;;;;;4999523;28;20464;-91
2020/12/03 08:53:42;;;;;;;;;;;;;;;;;;;;;
2020/12/03 08:57:05;;;;;;;42.25;24.67;;;5.90;99.90;;;;;;5017041;28;20021;-93
2020/12/03 09:00:16;;;;;;;50.25;25.27;;;5.90;99.90;;;;;;4992739;28;20107;-90
2020/12/03 09:03:05;;;;;;;44.38;24.00;;;5.90;99.90;;;;;;5037005;28;20037;-92
2020/12/03 09:05:45;;;;;;;46.28;24.15;;;5.90;99.90;;;;;;5035686;28;20056;-91
2020/12/03 09:12:09;;;;;;;44.03;23.63;;;5.90;99.90;;;;;;5118481;27;20084;-91
2020/12/03 09:14:45;;;;;;;44.42;23.92;;;5.90;99.90;;;;;;5135515;27;20049;-93
2020/12/03 09:17:24;;;;;;;47.67;23.20;;;5.90;99.90;;;;;;5134387;28;20019;-91
2020/12/03 09:20:20;;;;;;;47.67;23.92;;;5.90;99.90;;;;;;5134580;28;20035;-89
2020/12/03 09:23:35;;;;;;;;;;;;;;;;;;;;;
2020/12/03 09:26:31;;;;;;;43.80;23.50;;;5.90;99.90;;;;;;5119692;27;20114;-91
2020/12/03 09:29:26;;;;;;;42.88;24.83;;;5.90;99.90;;;;;;5134267;28;20355;-90
2020/12/03 09:32:22;;;;;;;45.70;23.70;;;5.90;99.90;;;;;;5132412;28;20080;-90
2020/12/03 09:35:20;;;;;;;46.97;25.58;;;5.90;99.90;;;;;;5120376;28;20035;-92
2020/12/03 09:37:59;;;;;;;45.70;24.02;;;5.80;99.90;;;;;;5093605;28;20427;-92
2020/12/03 09:40:54;;;;;;;41.28;25.42;;;5.90;99.90;;;;;;5134091;28;20096;-92
2020/12/03 09:47:45;;;;;;;43.97;23.77;;;5.80;99.90;;;;;;5071974;28;20496;-92
2020/12/03 09:51:09;;;;;;;45.75;25.73;;;5.80;99.90;;;;;;5009911;28;20030;-93
2020/12/03 09:53:58;;;;;;;53.05;27.25;;;5.70;99.90;;;;;;5009784;28;20379;-93
2020/12/03 09:56:55;;;;;;;53.17;27.85;;;5.70;99.90;;;;;;5083023;27;20039;-93
2020/12/03 10:09:51;;;;;;;63.97;30.65;;;5.80;99.90;;;;;;5132359;28;20023;-93
2020/12/03 10:19:46;;;;;;;59.90;27.75;;;5.80;99.90;;;;;;5151465;27;20514;-92
2020/12/03 10:22:56;;;;;;;55.38;28.80;;;5.80;99.90;;;;;;5127003;27;20046;-93
2020/12/03 10:26:26;;;;;;;52.20;28.65;;;5.70;99.90;;;;;;5135556;27;20027;-91
2020/12/03 10:29:09;;;;;;;54.80;30.00;;;5.80;99.90;;;;;;5140465;27;20034;-91
2020/12/03 10:31:54;;;;;;;54.33;27.98;;;5.80;99.90;;;;;;5140478;27;20083;-91
2020/12/03 10:38:08;;;;;;;57.08;29.17;;;5.80;99.90;;;;;;5128721;27;20021;-91
2020/12/03 10:41:05;;;;;;;57.58;30.73;;;5.80;99.90;;;;;;5139733;27;20047;-91
2020/12/03 10:44:42;;;;;;;;;;;;;;;;;;;;;
2020/12/03 10:47:40;;;;;;;54.50;28.98;;;5.70;99.90;;;;;;5125989;27;20043;-91
2020/12/03 10:50:41;;;;;;;47.60;26.65;;;5.80;99.90;;;;;;5102561;27;20489;-91
2020/12/03 11:03:03;;;;;;;57.13;29.52;;;5.80;99.90;;;;;;5141931;27;20042;-90
2020/12/03 11:06:14;;;;;;;;;;;;;;;;;;;;;
2020/12/03 11:08:41;;;;;;;50.63;29.10;;;5.80;99.90;;;;;;5148750;27;20029;-91
2020/12/03 11:11:15;;;;;;;48.80;27.08;;;5.90;99.90;;;;;;5134980;27;20023;-91
2020/12/03 11:14:34;;;;;;;49.22;27.80;;;5.80;99.90;;;;;;5143612;27;20066;-91
2020/12/03 11:17:06;;;;;;;56.25;29.77;;;5.90;99.90;;;;;;5113075;27;20045;-92
2020/12/03 11:20:03;;;;;;;51.33;29.27;;;5.90;99.90;;;;;;5132302;27;20038;-89
2020/12/03 11:23:33;;;;;;;58.65;29.65;;;5.90;99.90;;;;;;5112701;27;20455;-91
2020/12/03 11:26:10;;;;;;;54.00;30.77;;;5.90;99.90;;;;;;5135497;27;20031;-89
2020/12/03 11:28:45;;;;;;;52.25;28.88;;;5.90;99.90;;;;;;5129223;27;20038;-90
2020/12/03 11:31:36;;;;;;;48.00;27.70;;;5.90;99.90;;;;;;5136597;27;20027;-91
2020/12/03 11:50:02;;;;;;;50.92;27.10;;;6.00;99.90;;;;;;5048303;28;20054;-90
2020/12/03 11:52:46;;;;;;;46.45;27.50;;;6.00;99.90;;;;;;5124753;27;20038;-89
2020/12/03 11:59:19;;;;;;;;;;;;;;;;;;;;;
2020/12/03 12:02:36;;;;;;;44.55;26.50;;;6.10;99.90;;;;;;5135176;27;20024;-89
2020/12/03 12:05:07;;;;;;;43.92;26.33;;;6.10;99.90;;;;;;5033497;28;20088;-91
2020/12/03 12:11:19;;;;;;;43.20;25.30;;;6.10;99.90;;;;;;5033008;28;20029;-90
2020/12/03 12:14:32;;;;;;;45.45;26.00;;;6.00;99.90;;;;;;5032620;28;20022;-89
2020/12/03 12:17:31;;;;;;;;;;;;;;;;;;;;;
2020/12/03 12:20:09;;;;;;;38.33;23.75;;;6.00;99.90;;;;;;5032986;28;20034;-89
2020/12/03 12:22:57;;;;;;;39.08;23.83;;;6.00;99.90;;;;;;5061642;27;20170;-90
2020/12/03 12:25:46;;;;;;;36.20;23.90;;;6.00;99.90;;;;;;5112473;27;20031;-90
2020/12/03 12:29:14;;;;;;;;;;;;;;;;;;;;;
2020/12/03 12:32:01;;;;;;;32.50;20.70;;;6.10;99.90;;;;;;5028769;27;20129;-89
2020/12/03 12:34:57;;;;;;;33.95;22.27;;;6.10;99.90;;;;;;5092507;28;20100;-89
2020/12/03 12:37:27;;;;;;;35.58;22.13;;;6.10;99.90;;;;;;5059352;28;20029;-90
2020/12/03 12:40:06;;;;;;;37.20;22.38;;;6.10;99.90;;;;;;5096200;28;20039;-90
2020/12/03 12:42:35;;;;;;;31.02;21.40;;;6.10;99.90;;;;;;5112037;27;20027;-89
2020/12/03 12:45:14;;;;;;;;;;;;;;;;;;;;;
2020/12/03 12:47:52;;;;;;;33.70;20.80;;;6.10;99.90;;;;;;5135531;27;20378;-90
2020/12/03 12:50:27;;;;;;;30.15;20.98;;;6.10;99.90;;;;;;5117089;27;20128;-90
2020/12/03 12:53:31;;;;;;;29.60;20.73;;;6.10;99.90;;;;;;5134520;27;20045;-91
2020/12/03 12:56:04;;;;;;;31.47;19.90;;;6.10;99.90;;;;;;5126529;27;20029;-91
2020/12/03 12:58:59;;;;;;;29.98;19.67;;;6.10;99.90;;;;;;5113606;27;20035;-91
2020/12/03 13:01:35;;;;;;;28.65;19.10;;;6.10;99.90;;;;;;5114709;27;20039;-92
2020/12/03 13:04:24;;;;;;;29.15;19.55;;;6.00;99.90;;;;;;5115950;27;20051;-92
2020/12/03 13:07:16;;;;;;;27.90;20.20;;;6.10;99.90;;;;;;5124368;27;20375;-90
2020/12/03 13:10:04;;;;;;;27.50;18.67;;;6.00;99.90;;;;;;5018399;28;20180;-92
2020/12/03 13:12:49;;;;;;;26.83;18.35;;;6.00;99.90;;;;;;5109022;27;20031;-90
2020/12/03 13:15:28;;;;;;;28.50;19.42;;;6.00;99.90;;;;;;5127915;27;20111;-91
2020/12/03 13:18:12;;;;;;;24.95;18.35;;;6.00;99.90;;;;;;5140711;27;20060;-91
2020/12/03 13:24:38;;;;;;;25.33;18.23;;;6.00;99.90;;;;;;5122684;27;20015;-90
2020/12/03 13:27:32;;;;;;;;;;;;;;;;;;;;;
2020/12/03 13:30:08;;;;;;;;;;;6.00;99.90;;;;;;5146984;27;20049;-91
2020/12/03 13:32:56;;;;;;;25.45;18.35;;;6.00;99.90;;;;;;5125504;27;20338;-92
2020/12/03 13:35:23;;;;;;;28.00;18.23;;;6.00;99.90;;;;;;5134017;27;20027;-89
2020/12/03 13:38:02;;;;;;;24.70;16.85;;;6.00;99.90;;;;;;5122522;27;20108;-90
2020/12/03 13:41:15;;;;;;;21.65;15.75;;;6.00;99.90;;;;;;5125778;28;20038;-91
2020/12/03 13:44:07;;;;;;;21.00;16.55;;;6.00;99.90;;;;;;5068843;28;20058;-90
2020/12/03 13:47:09;;;;;;;;;;;;;;;;;;;;;
2020/12/03 13:49:35;;;;;;;24.33;15.75;;;6.00;99.90;;;;;;5131343;28;20031;-91
2020/12/03 13:52:46;;;;;;;21.52;14.85;;;6.00;99.90;;;;;;5132398;27;20114;-93
2020/12/03 13:55:29;;;;;;;19.65;14.20;;;6.00;99.90;;;;;;5140056;27;20041;-91
2020/12/03 13:57:58;;;;;;;22.23;14.75;;;6.00;99.90;;;;;;5110247;27;20060;-93
2020/12/03 14:00:28;;;;;;;18.02;13.38;;;5.90;99.90;;;;;;5116683;27;20066;-92
2020/12/03 14:03:51;;;;;;;19.58;13.73;;;5.90;99.90;;;;;;5116114;27;20031;-92
2020/12/03 14:06:48;;;;;;;17.02;12.32;;;5.90;99.90;;;;;;5102505;27;20523;-93
2020/12/03 14:09:20;;;;;;;18.35;12.80;;;5.90;99.90;;;;;;5129162;27;20057;-94
2020/12/03 14:11:59;;;;;;;15.90;12.13;;;5.90;99.90;;;;;;5119069;27;20039;-92
2020/12/03 14:15:07;;;;;;;18.95;12.65;;;5.90;99.90;;;;;;5114542;27;20023;-93
2020/12/03 14:18:21;;;;;;;16.70;11.95;;;5.90;99.90;;;;;;5105976;27;20063;-92
2020/12/03 14:20:59;;;;;;;15.65;11.40;;;5.90;99.90;;;;;;5118693;27;20045;-92
2020/12/03 14:24:07;;;;;;;15.82;11.10;;;5.90;99.90;;;;;;5140821;27;20015;-94
2020/12/03 14:26:38;;;;;;;16.13;10.70;;;5.80;99.90;;;;;;5139858;27;20115;-92
2020/12/03 14:29:14;;;;;;;16.10;11.73;;;5.90;99.90;;;;;;5137145;27;20027;-93
2020/12/03 14:32:02;;;;;;;16.95;11.70;;;5.80;99.90;;;;;;5117609;27;20378;-90
2020/12/03 14:35:27;;;;;;;;;;;;;;;;;;;;;
2020/12/03 14:38:07;;;;;;;16.70;10.43;;;5.80;99.90;;;;;;5136525;27;20031;-95
2020/12/03 14:40:50;;;;;;;14.60;10.77;;;5.80;99.90;;;;;;5134918;27;20648;-93
2020/12/03 14:43:30;;;;;;;;;;;;;;;;;;;;;
2020/12/03 14:46:30;;;;;;;13.75;9.35;;;5.70;99.90;;;;;;5125626;27;20047;-93
2020/12/03 14:49:19;;;;;;;12.55;8.35;;;5.70;99.90;;;;;;5116567;27;20046;-94
2020/12/03 14:52:02;;;;;;;;;;;;;;;;;;;;;
2020/12/03 14:54:55;;;;;;;11.88;8.85;;;5.60;99.90;;;;;;5144580;27;20031;-91
2020/12/03 15:02:02;;;;;;;;;;;;;;;;;;;;;
2020/12/03 15:05:17;;;;;;;12.25;8.93;;;5.60;99.90;;;;;;5041828;28;20031;-92
2020/12/03 15:07:48;;;;;;;12.93;8.50;;;5.60;99.90;;;;;;5041988;28;20032;-92
2020/12/03 15:13:25;;;;;;;11.23;8.02;;;5.50;99.90;;;;;;5123172;27;20391;-94
2020/12/03 15:15:56;;;;;;;12.35;8.20;;;5.50;99.90;;;;;;5096742;27;20032;-92
2020/12/03 15:18:31;;;;;;;12.98;7.75;;;5.50;99.90;;;;;;5122995;27;20043;-92
2020/12/03 15:20:57;;;;;;;10.60;7.70;;;5.50;99.90;;;;;;5140425;27;20059;-92
2020/12/03 15:23:25;;;;;;;10.90;6.93;;;5.50;99.90;;;;;;5164659;27;20030;-91
2020/12/03 15:25:57;;;;;;;11.63;7.65;;;5.50;99.90;;;;;;5136757;27;20019;-92
2020/12/03 15:28:26;;;;;;;11.10;7.72;;;5.40;99.90;;;;;;5138535;27;20023;-91
2020/12/03 15:30:57;;;;;;;9.63;7.13;;;5.40;99.90;;;;;;5118515;27;20473;-91
2020/12/03 15:33:50;;;;;;;9.82;7.25;;;5.40;99.90;;;;;;5116770;27;20027;-91
2020/12/03 15:37:01;;;;;;;13.20;6.95;;;5.40;99.90;;;;;;5102788;27;20023;-88
2020/12/03 15:39:39;;;;;;;8.30;6.18;;;5.40;99.90;;;;;;5144831;27;20117;-90
2020/12/03 15:42:08;;;;;;;8.95;6.90;;;5.40;99.90;;;;;;5119022;27;20151;-92
2020/12/03 15:45:03;;;;;;;8.98;6.63;;;5.40;99.90;;;;;;5138469;27;20123;-91
2020/12/03 15:47:33;;;;;;;10.48;7.47;;;5.40;99.90;;;;;;5129010;27;20070;-92
2020/12/03 15:53:46;;;;;;;11.00;7.72;;;5.40;99.90;;;;;;5158964;27;20034;-90
2020/12/03 15:56:51;;;;;;;;;;;;;;;;;;;;;
2020/12/03 15:59:27;;;;;;;17.23;10.50;;;5.50;99.90;;;;;;5072605;28;20036;-93
2020/12/03 16:02:36;;;;;;;;;;;;;;;;;;;;;
2020/12/03 16:05:16;;;;;;;14.27;9.65;;;5.40;99.90;;;;;;5052455;28;20029;-89
2020/12/03 16:08:08;;;;;;;14.30;10.63;;;5.40;99.90;;;;;;5036149;28;20108;-91